This is the latest recevied weather packets stored in our database for station/object OE-11140. If no packets are shown the sender has not sent any weather packets the latest 10 day(s).
| Time | Temp. | Humidity | Pressure | Rain* | Wind** | Luminosity | Snow |
|---|---|---|---|---|---|---|---|
| 1788498689 | 15.56° C | 84% | 1021.8 hPa | 0 mm | - | 13 W/m² | - |
| 1788498317 | 15.56° C | 81% | 1021.8 hPa | 0 mm | - | 7 W/m² | - |
| 1788497717 | 15° C | 83% | 1021.9 hPa | 0 mm | - | 0 W/m² | - |
| 1788496889 | 15.56° C | 84% | 1021.8 hPa | 0 mm | - | 0 W/m² | - |
| 1788496517 | 15° C | 84% | 1021.9 hPa | 0 mm | - | 0 W/m² | - |
| 1788495917 | 15° C | 85% | 1021.9 hPa | 0 mm | - | 0 W/m² | - |
| 1788495090 | 15° C | 86% | 1022 hPa | 0 mm | - | 0 W/m² | - |
| 1788494717 | 15.56° C | 84% | 1022 hPa | 0 mm | - | 0 W/m² | - |
| 1788494116 | 15° C | 85% | 1021.9 hPa | 0 mm | - | 0 W/m² | - |
| 1788492917 | 15° C | 84% | 1021.9 hPa | 0 mm | - | 0 W/m² | - |
| 1788492317 | 15.56° C | 84% | 1021.9 hPa | 0 mm | - | 0 W/m² | - |
| 1788491490 | 15.56° C | 83% | 1021.8 hPa | 0 mm | - | 0 W/m² | - |
| 1788490517 | 15.56° C | 83% | 1021.8 hPa | 0 mm | - | 0 W/m² | - |
| 1788487889 | 15.56° C | 82% | 1022 hPa | 0 mm | - | 0 W/m² | - |
| 1788485717 | 15.56° C | 83% | 1022.4 hPa | 0 mm | - | 0 W/m² | - |
| 1788484290 | 15.56° C | 84% | 1022.1 hPa | 0 mm | - | 0 W/m² | - |
| 1788474317 | 18.33° C | 70% | 1021.9 hPa | 0 mm | - | 0 W/m² | - |
| 1788473491 | 18.33° C | 71% | 1021.8 hPa | 0 mm | - | 0 W/m² | - |
| 1788472517 | 18.33° C | 71% | 1021.7 hPa | 0 mm | - | 0 W/m² | - |
| 1788471317 | 18.33° C | 72% | 1022 hPa | 0 mm | - | 0 W/m² | - |
| 1788470717 | 18.33° C | 70% | 1021.8 hPa | 0 mm | - | 0 W/m² | - |
| 1788469891 | 18.89° C | 69% | 1021.8 hPa | 0 mm | - | 0 W/m² | - |
| 1788468090 | 18.33° C | 72% | 1021.6 hPa | 0 mm | - | 0 W/m² | - |
| 1788467717 | 18.33° C | 74% | 1021.7 hPa | 0 mm | - | 0 W/m² | - |
| 1788467117 | 18.89° C | 72% | 1021.5 hPa | 0 mm | - | 0 W/m² | - |
* Rain latest hour (hover to see other rain measurements)
** Current wind speed in m/s (hover to see current wind gust speed)